createdAt,value
2022-12-19T00:00:34.077Z,41.95
2022-12-19T00:03:02.683Z,41.87
2022-12-19T00:05:31.216Z,42.48
2022-12-19T00:07:59.582Z,42.69
2022-12-19T00:10:33.510Z,42.58
2022-12-19T00:13:01.858Z,43.17
2022-12-19T00:15:31.649Z,43.73
2022-12-19T00:17:59.970Z,43.54
2022-12-19T00:20:28.351Z,44.01
2022-12-19T00:22:56.703Z,43.92
2022-12-19T00:25:25.076Z,44.38
2022-12-19T00:27:54.706Z,44.82
2022-12-19T00:30:23.090Z,44.92
2022-12-19T00:32:52.980Z,45.32
2022-12-19T00:35:21.302Z,45.51
2022-12-19T00:37:49.919Z,45.31
2022-12-19T00:40:18.874Z,44.75
2022-12-19T00:42:53.212Z,45.38
2022-12-19T00:45:22.308Z,46.15
2022-12-19T00:47:50.689Z,45.96
2022-12-19T00:50:20.457Z,45.88
2022-12-19T00:52:48.843Z,46.01
2022-12-19T00:55:19.374Z,46.68
2022-12-19T00:57:48.648Z,45.80
2022-12-19T01:00:18.425Z,46.21
2022-12-19T01:02:47.193Z,46.35
2022-12-19T01:05:15.671Z,46.75
2022-12-19T01:07:45.429Z,46.47
2022-12-19T01:10:13.979Z,46.01
2022-12-19T01:12:47.598Z,45.92
2022-12-19T01:15:17.077Z,46.71
2022-12-19T01:17:46.088Z,46.52
2022-12-19T01:20:15.849Z,46.27
2022-12-19T01:22:46.518Z,46.30
2022-12-19T01:25:15.933Z,46.57
2022-12-19T01:27:44.228Z,46.49
2022-12-19T01:30:14.079Z,45.66
2022-12-19T01:32:43.756Z,45.49
2022-12-19T01:35:21.633Z,46.11
2022-12-19T01:37:54.898Z,46.16
2022-12-19T01:40:36.630Z,45.37
2022-12-19T01:43:05.290Z,45.35
2022-12-19T01:45:43.610Z,44.58
2022-12-19T01:48:20.328Z,45.38
2022-12-19T01:51:02.011Z,45.75
2022-12-19T01:53:48.368Z,46.02
2022-12-19T01:56:18.911Z,46.43
2022-12-19T01:58:48.409Z,46.40
2022-12-19T02:01:19.392Z,47.16
2022-12-19T02:03:49.156Z,48.05
2022-12-19T02:06:17.654Z,47.34
2022-12-19T02:08:49.743Z,47.41
2022-12-19T02:11:18.869Z,48.98
2022-12-19T02:13:47.841Z,48.76
2022-12-19T02:16:27.498Z,49.14
2022-12-19T02:19:09.221Z,49.75
2022-12-19T02:21:54.844Z,49.21
2022-12-19T02:24:49.042Z,49.71
2022-12-19T02:27:40.192Z,49.71
2022-12-19T02:30:12.537Z,49.69
2022-12-19T02:32:49.848Z,49.54
2022-12-19T02:35:26.855Z,49.56
2022-12-19T02:38:05.759Z,49.09
2022-12-19T02:40:44.001Z,50.00
2022-12-19T02:43:15.319Z,50.48
2022-12-19T02:45:45.123Z,50.85
2022-12-19T02:48:19.305Z,50.69
2022-12-19T02:50:50.209Z,51.26
2022-12-19T02:53:22.313Z,51.54
2022-12-19T02:56:00.396Z,51.28
2022-12-19T02:58:49.862Z,51.89
2022-12-19T03:01:34.105Z,52.58
2022-12-19T03:04:16.062Z,52.22
2022-12-19T03:06:50.359Z,52.31
2022-12-19T03:09:27.565Z,52.49
2022-12-19T03:12:04.253Z,52.65
2022-12-19T03:14:34.696Z,52.24
2022-12-19T03:17:06.609Z,52.72
2022-12-19T03:19:37.985Z,52.84
2022-12-19T03:22:06.590Z,52.84
2022-12-19T03:24:35.972Z,53.34
2022-12-19T03:27:09.850Z,53.16
2022-12-19T03:29:41.991Z,53.25
2022-12-19T03:32:13.948Z,52.62
2022-12-19T03:34:48.707Z,52.86
2022-12-19T03:37:20.668Z,52.61
2022-12-19T03:39:54.975Z,52.46
2022-12-19T03:42:44.640Z,52.45
2022-12-19T03:45:15.069Z,52.78
2022-12-19T03:47:48.613Z,52.87
2022-12-19T03:50:18.488Z,53.06
2022-12-19T03:52:54.474Z,52.96
2022-12-19T03:55:33.108Z,52.82
2022-12-19T03:58:08.977Z,51.73
2022-12-19T04:00:41.998Z,52.47
2022-12-19T04:03:11.970Z,52.75
2022-12-19T04:05:43.702Z,52.77
2022-12-19T04:08:13.427Z,52.67
2022-12-19T04:10:55.250Z,52.77
2022-12-19T04:13:31.486Z,52.73
2022-12-19T04:16:07.330Z,52.78
2022-12-19T04:18:38.184Z,52.62
2022-12-19T04:21:16.429Z,52.71
2022-12-19T04:23:49.427Z,52.58
2022-12-19T04:26:20.393Z,52.26
2022-12-19T04:28:54.319Z,52.68
2022-12-19T04:31:23.608Z,52.34
2022-12-19T04:33:52.107Z,52.22
2022-12-19T04:36:21.935Z,52.25
2022-12-19T04:38:50.339Z,52.11
2022-12-19T04:41:18.777Z,52.48
2022-12-19T04:43:47.184Z,52.20
2022-12-19T04:46:15.700Z,51.92
2022-12-19T04:48:44.151Z,52.51
2022-12-19T04:51:12.807Z,52.17
2022-12-19T04:53:42.603Z,52.16
2022-12-19T04:56:11.333Z,52.11
2022-12-19T04:58:39.750Z,52.48
2022-12-19T05:01:09.872Z,51.91
2022-12-19T05:03:38.753Z,51.92
2022-12-19T05:06:08.892Z,51.42
2022-12-19T05:08:37.629Z,51.16
2022-12-19T05:11:08.142Z,52.08
2022-12-19T05:13:36.984Z,52.29
2022-12-19T05:16:08.746Z,51.72
2022-12-19T05:18:38.187Z,51.89
2022-12-19T05:21:07.174Z,52.02
2022-12-19T05:23:35.921Z,51.78
2022-12-19T05:26:07.158Z,51.40
2022-12-19T05:28:36.627Z,51.46
2022-12-19T05:31:07.035Z,51.45
2022-12-19T05:33:36.249Z,50.81
2022-12-19T05:36:05.520Z,50.95
2022-12-19T05:38:34.339Z,51.14
2022-12-19T05:41:10.119Z,49.53
2022-12-19T05:43:39.124Z,49.75
2022-12-19T05:46:08.181Z,50.44
2022-12-19T05:48:37.100Z,50.28
2022-12-19T05:51:06.036Z,50.67
2022-12-19T05:53:36.890Z,51.03
2022-12-19T05:56:06.472Z,51.58
2022-12-19T05:58:39.531Z,51.54
2022-12-19T06:01:09.505Z,51.78
2022-12-19T06:03:38.651Z,51.99
2022-12-19T06:06:08.865Z,52.81
2022-12-19T06:08:38.136Z,52.67
2022-12-19T06:11:08.675Z,52.41
2022-12-19T06:13:38.704Z,52.55
2022-12-19T06:16:11.350Z,52.09
2022-12-19T06:18:44.267Z,52.28
2022-12-19T06:21:15.780Z,52.01
2022-12-19T06:23:44.855Z,52.22
2022-12-19T06:26:19.037Z,52.99
2022-12-19T06:28:50.719Z,52.42
2022-12-19T06:31:20.621Z,52.94
2022-12-19T06:33:49.247Z,53.43
2022-12-19T06:36:21.498Z,53.07
2022-12-19T06:38:50.881Z,52.84
2022-12-19T06:41:51.986Z,53.13
2022-12-19T06:44:21.852Z,52.82
2022-12-19T06:46:50.227Z,52.99
2022-12-19T06:49:18.614Z,53.01
2022-12-19T06:51:47.442Z,52.42
2022-12-19T06:54:17.027Z,52.73
2022-12-19T06:56:45.778Z,52.91
2022-12-19T06:59:16.136Z,52.68
2022-12-19T07:01:55.363Z,52.42
2022-12-19T07:04:28.066Z,52.66
2022-12-19T07:06:56.792Z,52.25
2022-12-19T07:09:25.206Z,52.30
2022-12-19T07:11:53.608Z,52.22
2022-12-19T07:14:22.045Z,51.91
2022-12-19T07:16:53.872Z,52.53
2022-12-19T07:19:24.116Z,52.00
2022-12-19T07:21:52.673Z,52.41
2022-12-19T07:24:21.352Z,52.15
2022-12-19T07:26:50.191Z,51.57
2022-12-19T07:29:18.961Z,51.84
2022-12-19T07:31:47.802Z,52.08
2022-12-19T07:34:17.607Z,53.03
2022-12-19T07:36:46.067Z,52.98
2022-12-19T07:39:14.537Z,53.04
2022-12-19T07:41:42.896Z,53.04
2022-12-19T07:44:13.515Z,53.46
2022-12-19T07:46:41.895Z,54.81
2022-12-19T07:49:10.699Z,55.02
2022-12-19T07:51:40.540Z,54.74
2022-12-19T07:54:09.038Z,54.65
2022-12-19T07:56:37.523Z,54.75
2022-12-19T07:59:06.030Z,55.93
2022-12-19T08:01:34.610Z,55.98
2022-12-19T08:04:03.134Z,55.68
2022-12-19T08:06:35.186Z,55.19
2022-12-19T08:09:07.989Z,54.94
2022-12-19T08:11:36.539Z,55.68
2022-12-19T08:14:05.453Z,55.83
2022-12-19T08:16:49.269Z,56.34
2022-12-19T08:19:27.248Z,57.05
2022-12-19T08:21:56.044Z,56.79
2022-12-19T08:24:25.857Z,56.25
2022-12-19T08:26:54.306Z,56.47
2022-12-19T08:29:22.716Z,56.92
2022-12-19T08:31:51.054Z,57.18
2022-12-19T08:34:19.483Z,56.80
2022-12-19T08:36:47.909Z,57.06
2022-12-19T08:39:16.363Z,57.57
2022-12-19T08:41:46.639Z,57.88
2022-12-19T08:44:15.627Z,56.97
2022-12-19T08:46:49.674Z,57.32
2022-12-19T08:49:19.008Z,57.42
2022-12-19T08:51:48.042Z,56.36
2022-12-19T08:54:16.376Z,57.42
2022-12-19T08:56:47.149Z,57.51
2022-12-19T08:59:21.984Z,57.62
2022-12-19T09:02:00.219Z,57.38
2022-12-19T09:06:02.070Z,57.39
2022-12-19T09:07:17.879Z,58.35
2022-12-19T09:09:46.323Z,58.92
2022-12-19T09:12:17.477Z,58.11
2022-12-19T09:14:46.060Z,57.62
2022-12-19T09:17:14.671Z,56.94
2022-12-19T09:19:47.396Z,57.55
2022-12-19T09:22:17.029Z,57.61
2022-12-19T09:24:45.717Z,57.54
2022-12-19T09:27:15.601Z,57.06
2022-12-19T09:29:44.554Z,57.11
2022-12-19T09:32:12.990Z,56.57
2022-12-19T09:34:41.310Z,57.55
2022-12-19T09:37:16.366Z,57.99
2022-12-19T09:39:47.484Z,58.00
2022-12-19T09:42:43.590Z,58.07
2022-12-19T09:45:32.381Z,57.92
2022-12-19T09:48:02.385Z,58.29
2022-12-19T09:50:46.861Z,58.44
2022-12-19T09:53:23.606Z,58.89
2022-12-19T09:55:54.371Z,59.57
2022-12-19T09:58:38.924Z,60.86
2022-12-19T10:01:15.738Z,61.12
2022-12-19T10:03:48.492Z,61.62
2022-12-19T10:07:09.203Z,61.95
2022-12-19T10:10:58.068Z,62.63
2022-12-19T10:12:40.856Z,61.47
2022-12-19T10:15:20.850Z,60.75
2022-12-19T10:18:12.736Z,60.92
2022-12-19T10:20:47.009Z,60.75
2022-12-19T10:23:40.243Z,60.86
2022-12-19T10:26:19.140Z,60.58
2022-12-19T10:29:01.462Z,63.46
2022-12-19T10:31:37.720Z,62.28
2022-12-19T10:34:17.579Z,62.56
2022-12-19T10:37:18.540Z,62.95
2022-12-19T10:39:48.785Z,63.31
2022-12-19T10:42:27.206Z,62.35
2022-12-19T10:44:58.242Z,61.75
2022-12-19T10:47:28.022Z,63.82
2022-12-19T10:49:56.455Z,64.47
2022-12-19T10:52:47.548Z,65.05
2022-12-19T10:55:35.092Z,65.82
2022-12-19T10:58:16.552Z,65.79
2022-12-19T11:00:48.917Z,66.03
2022-12-19T11:03:20.153Z,65.17
2022-12-19T11:05:57.113Z,64.49
2022-12-19T11:08:28.320Z,64.02
2022-12-19T11:14:32.026Z,64.13
2022-12-19T11:18:47.125Z,62.13
2022-12-19T11:23:47.245Z,61.52
2022-12-19T11:29:18.523Z,60.61
2022-12-19T11:29:43.774Z,60.65
2022-12-19T11:30:38.648Z,60.38
2022-12-19T11:30:46.079Z,59.90
2022-12-19T11:34:05.395Z,59.53
2022-12-19T11:36:42.798Z,59.51
2022-12-19T11:39:20.215Z,59.32
2022-12-19T11:41:57.820Z,60.01
2022-12-19T11:44:31.485Z,59.29
2022-12-19T11:47:05.001Z,59.25
2022-12-19T11:49:40.029Z,59.00
2022-12-19T11:52:54.256Z,58.73
2022-12-19T11:55:17.020Z,58.51
2022-12-19T11:57:46.476Z,58.07
2022-12-19T12:00:17.715Z,58.50
2022-12-19T12:03:35.393Z,58.80
2022-12-19T12:06:13.202Z,58.47
2022-12-19T12:10:05.162Z,59.67
2022-12-19T12:18:11.327Z,59.36
2022-12-19T12:28:29.222Z,59.50
2022-12-19T12:31:05.750Z,59.73
2022-12-19T12:31:45.830Z,60.45
2022-12-19T12:31:49.079Z,60.97
2022-12-19T12:31:51.387Z,60.26
2022-12-19T12:31:58.265Z,60.77
2022-12-19T12:35:33.126Z,60.45
2022-12-19T12:37:52.422Z,60.57
2022-12-19T12:39:02.651Z,60.80
2022-12-19T12:41:56.767Z,60.92
2022-12-19T12:44:31.976Z,60.96
2022-12-19T12:47:06.639Z,61.17
2022-12-19T12:49:43.399Z,61.46
2022-12-19T12:52:19.171Z,61.98
2022-12-19T12:54:50.274Z,61.81
2022-12-19T12:57:36.402Z,62.32
2022-12-19T13:00:29.520Z,62.13
2022-12-19T13:03:05.445Z,62.30
2022-12-19T13:05:41.089Z,62.82
2022-12-19T13:08:34.341Z,63.22
2022-12-19T13:11:04.400Z,63.15
2022-12-19T13:13:51.788Z,63.35
2022-12-19T13:16:53.208Z,63.36
2022-12-19T13:19:28.344Z,63.45
2022-12-19T13:22:40.564Z,63.63
2022-12-19T13:25:46.158Z,63.13
2022-12-19T13:28:40.578Z,63.67
2022-12-19T13:31:23.420Z,62.57
2022-12-19T13:34:20.733Z,63.00
2022-12-19T13:39:48.075Z,61.74
2022-12-19T13:40:07.545Z,62.05
2022-12-19T13:43:08.221Z,61.86
2022-12-19T13:45:42.785Z,62.38
2022-12-19T13:48:17.297Z,61.88
2022-12-19T13:50:49.836Z,61.93
2022-12-19T13:53:19.690Z,61.80
2022-12-19T13:55:48.251Z,62.17
2022-12-19T13:58:28.948Z,61.84
2022-12-19T14:01:02.991Z,61.60
2022-12-19T14:03:44.577Z,61.32
2022-12-19T14:06:21.777Z,61.65
2022-12-19T14:09:20.206Z,60.99
2022-12-19T14:13:36.774Z,60.69
2022-12-19T14:15:12.608Z,61.08
2022-12-19T14:17:38.705Z,60.93
2022-12-19T14:22:06.687Z,61.38
2022-12-19T14:23:09.804Z,59.99
2022-12-19T14:28:15.352Z,60.63
2022-12-19T14:28:46.447Z,60.83
2022-12-19T14:31:20.886Z,60.91
2022-12-19T14:36:48.492Z,61.41
2022-12-19T14:39:28.838Z,61.44
2022-12-19T14:43:14.845Z,61.64
2022-12-19T14:52:51.880Z,61.56
2022-12-19T14:53:52.033Z,61.60
2022-12-19T14:54:08.150Z,62.09
2022-12-19T14:56:03.758Z,62.37
2022-12-19T14:57:29.063Z,62.82
2022-12-19T15:01:07.515Z,62.52
2022-12-19T15:03:23.431Z,62.49
2022-12-19T15:05:53.938Z,62.36
2022-12-19T15:10:07.463Z,62.51
2022-12-19T15:11:55.480Z,63.00
2022-12-19T15:14:56.693Z,62.67
2022-12-19T15:17:25.060Z,62.59
2022-12-19T15:19:53.793Z,62.79
2022-12-19T15:22:22.212Z,62.79
2022-12-19T15:24:50.764Z,61.77
2022-12-19T15:27:20.864Z,61.82
2022-12-19T15:29:49.327Z,60.67
2022-12-19T15:32:18.778Z,60.72
2022-12-19T15:34:51.407Z,60.76
2022-12-19T15:37:20.373Z,61.32
2022-12-19T15:39:48.831Z,61.08
2022-12-19T15:42:23.022Z,61.52
2022-12-19T15:44:53.636Z,61.78
2022-12-19T15:47:30.499Z,60.81
2022-12-19T15:50:02.948Z,61.43
2022-12-19T15:52:31.651Z,60.60
2022-12-19T15:55:00.060Z,60.07
2022-12-19T15:57:33.998Z,59.86
2022-12-19T16:00:03.905Z,59.47
2022-12-19T16:05:24.251Z,59.98
2022-12-19T16:07:53.160Z,60.49
2022-12-19T16:10:22.313Z,60.54
2022-12-19T16:12:56.393Z,61.10
2022-12-19T16:15:28.185Z,61.01
2022-12-19T16:17:58.617Z,60.72
2022-12-19T16:20:28.970Z,61.37
2022-12-19T16:22:58.004Z,60.55
2022-12-19T16:25:33.577Z,60.07
2022-12-19T16:28:06.116Z,59.19
2022-12-19T16:30:36.098Z,59.74
2022-12-19T16:33:04.538Z,59.84
2022-12-19T16:36:03.229Z,59.40
2022-12-19T16:38:26.328Z,59.36
2022-12-19T16:40:56.368Z,57.49
2022-12-19T16:51:27.782Z,58.16
2022-12-19T16:54:21.225Z,58.80
2022-12-19T16:56:51.463Z,58.60
2022-12-19T16:59:23.467Z,58.70
2022-12-19T17:04:28.374Z,58.88
2022-12-19T17:06:58.179Z,58.08
2022-12-19T17:09:26.818Z,59.08
2022-12-19T17:11:58.511Z,59.88
2022-12-19T17:14:31.735Z,59.76
2022-12-19T17:17:02.244Z,60.07
2022-12-19T17:19:38.892Z,58.94
2022-12-19T17:22:13.939Z,58.87
2022-12-19T17:24:44.337Z,58.93
2022-12-19T17:27:14.034Z,58.63
2022-12-19T17:29:43.842Z,58.95
2022-12-19T17:32:23.706Z,58.89
2022-12-19T17:34:54.984Z,58.84
2022-12-19T17:37:27.286Z,58.39
2022-12-19T17:39:57.337Z,58.69
2022-12-19T17:42:33.664Z,59.44
2022-12-19T17:45:09.605Z,59.63
2022-12-19T17:47:40.012Z,59.86
2022-12-19T17:50:19.258Z,60.17
2022-12-19T17:52:51.430Z,60.17
2022-12-19T17:55:22.357Z,60.34
2022-12-19T17:57:51.579Z,60.14
2022-12-19T18:00:28.379Z,59.96
2022-12-19T18:02:59.280Z,60.40
2022-12-19T18:05:30.357Z,60.63
2022-12-19T18:08:00.810Z,60.53
2022-12-19T18:10:32.282Z,60.31
2022-12-19T18:13:00.655Z,60.15
2022-12-19T18:15:29.082Z,59.62
2022-12-19T18:17:59.657Z,59.67
2022-12-19T18:20:32.302Z,59.21
2022-12-19T18:23:03.687Z,59.08
2022-12-19T18:25:35.454Z,58.86
2022-12-19T18:28:04.331Z,58.40
2022-12-19T18:30:32.732Z,58.24
2022-12-19T18:33:03.783Z,58.68
2022-12-19T18:35:36.254Z,58.61
2022-12-19T18:38:09.408Z,58.18
2022-12-19T18:40:37.997Z,58.25
2022-12-19T18:43:06.747Z,58.64
2022-12-19T18:45:37.438Z,59.08
2022-12-19T18:48:09.264Z,59.15
2022-12-19T18:50:51.007Z,59.30
2022-12-19T18:53:23.259Z,58.95
2022-12-19T18:55:53.207Z,58.28
2022-12-19T18:58:21.774Z,57.94
2022-12-19T19:00:55.630Z,58.17
2022-12-19T19:03:31.862Z,58.36
2022-12-19T19:06:01.327Z,58.39
2022-12-19T19:08:33.339Z,58.40
2022-12-19T19:11:02.276Z,58.78
2022-12-19T19:13:31.604Z,58.76
2022-12-19T19:16:02.413Z,58.22
2022-12-19T19:18:35.784Z,58.66
2022-12-19T19:21:04.718Z,58.90
2022-12-19T19:23:39.238Z,59.08
2022-12-19T19:26:08.089Z,58.35
2022-12-19T19:28:39.372Z,57.57
2022-12-19T19:31:11.108Z,58.45
2022-12-19T19:33:42.788Z,58.48
2022-12-19T19:36:16.061Z,57.59
2022-12-19T19:38:52.013Z,58.07
2022-12-19T19:41:21.703Z,57.65
2022-12-19T19:43:52.646Z,57.80
2022-12-19T19:46:21.275Z,58.05
2022-12-19T19:48:49.611Z,57.80
2022-12-19T19:51:19.313Z,58.51
2022-12-19T19:53:50.621Z,57.57
2022-12-19T19:56:20.517Z,57.94
2022-12-19T19:58:50.148Z,58.29
2022-12-19T20:01:20.086Z,58.43
2022-12-19T20:03:49.925Z,59.30
2022-12-19T20:06:20.755Z,59.48
2022-12-19T20:08:51.334Z,59.33
2022-12-19T20:11:21.886Z,58.90
2022-12-19T20:13:51.649Z,59.00
2022-12-19T20:16:20.587Z,59.05
2022-12-19T20:18:52.387Z,59.11
2022-12-19T20:21:24.904Z,59.10
2022-12-19T20:23:56.688Z,59.01
2022-12-19T20:26:26.399Z,59.28
2022-12-19T20:28:55.666Z,58.92
2022-12-19T20:31:26.694Z,58.24
2022-12-19T20:33:58.016Z,59.03
2022-12-19T20:36:26.735Z,59.65
2022-12-19T20:38:56.565Z,59.36
2022-12-19T20:41:25.036Z,58.67
2022-12-19T20:43:53.475Z,59.05
2022-12-19T20:46:23.078Z,59.08
2022-12-19T20:48:52.274Z,59.31
2022-12-19T20:51:22.428Z,58.52
2022-12-19T20:53:54.045Z,58.62
2022-12-19T20:56:26.001Z,59.17
2022-12-19T20:58:54.647Z,59.22
2022-12-19T21:01:24.968Z,58.50
2022-12-19T21:03:54.391Z,58.34
2022-12-19T21:06:27.784Z,59.28
2022-12-19T21:08:56.768Z,58.12
2022-12-19T21:11:27.517Z,58.23
2022-12-19T21:13:57.023Z,57.21
2022-12-19T21:16:27.319Z,58.08
2022-12-19T21:18:57.070Z,57.79
2022-12-19T21:21:28.484Z,57.63
2022-12-19T21:23:59.114Z,58.08
2022-12-19T21:26:30.923Z,57.92
2022-12-19T21:29:00.923Z,58.36
2022-12-19T21:31:32.267Z,58.78
2022-12-19T21:34:04.248Z,58.55
2022-12-19T21:36:35.229Z,58.39
2022-12-19T21:39:04.057Z,58.23
2022-12-19T21:41:34.260Z,58.21
2022-12-19T21:44:02.622Z,59.08
2022-12-19T21:46:33.398Z,58.66
2022-12-19T21:49:03.047Z,58.93
2022-12-19T21:51:33.021Z,59.00
2022-12-19T21:54:03.149Z,59.51
2022-12-19T21:56:34.557Z,59.58
2022-12-19T21:59:05.477Z,59.71
2022-12-19T22:01:35.612Z,60.07
2022-12-19T22:04:07.214Z,59.66
2022-12-19T22:06:39.077Z,59.90
2022-12-19T22:09:09.826Z,59.64
2022-12-19T22:11:39.586Z,59.95
2022-12-19T22:14:08.098Z,60.35
2022-12-19T22:16:37.471Z,60.87
2022-12-19T22:19:06.803Z,60.54
2022-12-19T22:21:35.682Z,60.29
2022-12-19T22:24:06.519Z,60.59
2022-12-19T22:26:37.873Z,60.78
2022-12-19T22:29:11.928Z,60.73
2022-12-19T22:31:41.708Z,60.81
2022-12-19T22:34:13.155Z,60.75
2022-12-19T22:36:43.259Z,60.32
2022-12-19T22:39:14.073Z,60.76
2022-12-19T22:41:43.472Z,60.88
2022-12-19T22:44:17.610Z,60.86
2022-12-19T22:46:45.985Z,60.78
2022-12-19T22:49:14.704Z,61.35
2022-12-19T22:51:43.452Z,61.45
2022-12-19T22:54:12.520Z,61.92
2022-12-19T22:56:40.954Z,62.26
2022-12-19T22:59:10.308Z,62.34
2022-12-19T23:01:42.383Z,62.49
2022-12-19T23:04:14.129Z,62.53
2022-12-19T23:06:43.367Z,62.21
2022-12-19T23:09:14.524Z,62.29
2022-12-19T23:11:44.315Z,62.27
2022-12-19T23:14:16.625Z,62.66
2022-12-19T23:16:47.028Z,62.79
2022-12-19T23:19:17.308Z,62.49
2022-12-19T23:21:45.773Z,62.21
2022-12-19T23:24:14.205Z,61.30
2022-12-19T23:26:43.105Z,61.84
2022-12-19T23:29:14.074Z,61.99
2022-12-19T23:31:45.104Z,62.21
2022-12-19T23:34:15.894Z,61.76
2022-12-19T23:39:32.701Z,62.20
2022-12-19T23:42:01.194Z,62.45
2022-12-19T23:44:29.730Z,62.50
2022-12-19T23:47:03.006Z,62.30
2022-12-19T23:49:34.206Z,62.26
2022-12-19T23:52:02.576Z,62.61
2022-12-19T23:54:30.914Z,62.75
2022-12-19T23:56:59.350Z,62.62
2022-12-19T23:59:27.870Z,62.29
